ANS76D SACO-SCEL
Flight info
| Callsign | ANS76D |
|---|---|
| Flight time | N/A |
| Altitude | 36000 |
| Route | ALDEX1G ALDEX UZ105 UMKAL UMKAL7C |
| Aircraft | MD82/M-SDFGIRWY/S |
Departure
| Time | 2026-05-07 22:46 |
|---|---|
| Airport | Ingeniero Aeronáutico Ambrosio L.V. Taravella International Airport (SACO) |
Arrival
| Time | N/A |
|---|---|
| Airport | Comodoro Arturo Merino Benítez International Airport (SCEL) |
| Time | Latitude | Longitude | Altitude | Speed | Heading |
|---|---|---|---|---|---|
| 2026-05-07 22:21 | -31.31550 | -64.21160 | 1613 ft | 0 kts | 258° |
| 2026-05-07 22:34 | -31.31550 | -64.21163 | 1613 ft | 4 kts | 264° |
| 2026-05-07 22:34 | -31.31550 | -64.21146 | 1613 ft | 4 kts | 246° |
| 2026-05-07 22:34 | -31.31535 | -64.21129 | 1613 ft | 4 kts | 212° |
| 2026-05-07 22:34 | -31.31524 | -64.21118 | 1613 ft | 3 kts | 247° |
| 2026-05-07 22:35 | -31.31514 | -64.21089 | 1613 ft | 4 kts | 244° |
| 2026-05-07 22:35 | -31.31503 | -64.21073 | 1613 ft | 3 kts | 191° |
| 2026-05-07 22:35 | -31.31496 | -64.21072 | 1614 ft | 0 kts | 188° |
| 2026-05-07 22:40 | -31.31501 | -64.21073 | 1621 ft | 1 kts | 188° |
| 2026-05-07 22:41 | -31.31515 | -64.21075 | 1614 ft | 3 kts | 188° |
| 2026-05-07 22:41 | -31.31539 | -64.21083 | 1618 ft | 4 kts | 202° |
| 2026-05-07 22:41 | -31.31573 | -64.21100 | 1613 ft | 6 kts | 199° |
| 2026-05-07 22:41 | -31.31621 | -64.21102 | 1620 ft | 8 kts | 178° |
| 2026-05-07 22:42 | -31.31680 | -64.21100 | 1614 ft | 9 kts | 178° |
| 2026-05-07 22:42 | -31.31741 | -64.21075 | 1614 ft | 10 kts | 139° |
| 2026-05-07 22:42 | -31.31802 | -64.21028 | 1613 ft | 11 kts | 168° |
| 2026-05-07 22:42 | -31.31890 | -64.21027 | 1614 ft | 18 kts | 180° |
| 2026-05-07 22:43 | -31.32020 | -64.21026 | 1616 ft | 19 kts | 180° |
| 2026-05-07 22:43 | -31.32152 | -64.21025 | 1622 ft | 19 kts | 180° |
| 2026-05-07 22:43 | -31.32281 | -64.21024 | 1622 ft | 17 kts | 179° |
| 2026-05-07 22:43 | -31.32385 | -64.21016 | 1622 ft | 11 kts | 163° |
| 2026-05-07 22:44 | -31.32440 | -64.20972 | 1618 ft | 7 kts | 126° |
| 2026-05-07 22:44 | -31.32451 | -64.20924 | 1614 ft | 5 kts | 96° |
| 2026-05-07 22:44 | -31.32450 | -64.20896 | 1621 ft | 1 kts | 74° |
| 2026-05-07 22:44 | -31.32441 | -64.20874 | 1613 ft | 9 kts | 59° |
| 2026-05-07 22:45 | -31.32399 | -64.20820 | 1612 ft | 8 kts | 24° |
| 2026-05-07 22:45 | -31.32350 | -64.20815 | 1612 ft | 0 kts | 357° |
| 2026-05-07 22:45 | -31.32348 | -64.20815 | 1612 ft | 3 kts | 357° |
| 2026-05-07 22:45 | -31.32135 | -64.20822 | 1620 ft | 67 kts | 360° |
| 2026-05-07 22:46 | -31.31409 | -64.20830 | 1619 ft | 138 kts | 359° |
| 2026-05-07 22:46 | -31.30277 | -64.20853 | 1827 ft | 176 kts | 359° |
| 2026-05-07 22:46 | -31.29046 | -64.20835 | 2676 ft | 180 kts | 2° |
| 2026-05-07 22:46 | -31.27781 | -64.20773 | 3581 ft | 176 kts | 0° |
| 2026-05-07 22:47 | -31.26591 | -64.20787 | 4481 ft | 178 kts | 355° |
| 2026-05-07 22:47 | -31.25213 | -64.20834 | 4771 ft | 211 kts | 355° |
| 2026-05-07 22:47 | -31.23794 | -64.20860 | 5727 ft | 199 kts | 353° |
| 2026-05-07 22:47 | -31.22364 | -64.20902 | 6288 ft | 204 kts | 353° |
| 2026-05-07 22:48 | -31.20961 | -64.20942 | 6859 ft | 213 kts | 353° |
| 2026-05-07 22:48 | -31.19358 | -64.21169 | 6865 ft | 244 kts | 332° |
| 2026-05-07 22:48 | -31.17918 | -64.22222 | 7266 ft | 249 kts | 313° |
| 2026-05-07 22:48 | -31.16544 | -64.23595 | 7567 ft | 273 kts | 312° |
| 2026-05-07 22:49 | -31.15049 | -64.25105 | 7934 ft | 292 kts | 313° |
| 2026-05-07 22:49 | -31.13729 | -64.26843 | 8645 ft | 279 kts | 288° |
| 2026-05-07 22:49 | -31.13457 | -64.28963 | 9436 ft | 261 kts | 251° |
| 2026-05-07 22:49 | -31.14113 | -64.30903 | 10234 ft | 256 kts | 240° |
| 2026-05-07 22:50 | -31.14900 | -64.32768 | 10985 ft | 257 kts | 240° |
| 2026-05-07 22:50 | -31.15716 | -64.34627 | 11739 ft | 258 kts | 240° |
| 2026-05-07 22:50 | -31.16578 | -64.36465 | 12487 ft | 258 kts | 239° |
| 2026-05-07 22:50 | -31.17475 | -64.38280 | 13233 ft | 259 kts | 238° |
| 2026-05-07 22:51 | -31.18402 | -64.40096 | 13961 ft | 261 kts | 238° |
| 2026-05-07 22:51 | -31.19346 | -64.41907 | 14706 ft | 261 kts | 238° |
| 2026-05-07 22:51 | -31.20302 | -64.43704 | 15463 ft | 261 kts | 238° |
| 2026-05-07 22:51 | -31.21268 | -64.45489 | 16213 ft | 259 kts | 238° |
| 2026-05-07 22:52 | -31.22238 | -64.47253 | 16955 ft | 257 kts | 238° |
| 2026-05-07 22:52 | -31.23196 | -64.48965 | 17685 ft | 252 kts | 238° |
| 2026-05-07 22:52 | -31.24159 | -64.50656 | 18419 ft | 247 kts | 238° |
| 2026-05-07 22:52 | -31.25113 | -64.52302 | 19156 ft | 242 kts | 238° |
| 2026-05-07 22:53 | -31.26056 | -64.53897 | 19882 ft | 234 kts | 238° |
| 2026-05-07 22:53 | -31.26975 | -64.55427 | 20603 ft | 225 kts | 238° |
| 2026-05-07 22:53 | -31.27871 | -64.56880 | 21323 ft | 214 kts | 238° |
| 2026-05-07 22:53 | -31.28730 | -64.58237 | 22022 ft | 200 kts | 239° |
| 2026-05-07 22:54 | -31.29561 | -64.59514 | 22451 ft | 202 kts | 238° |
| 2026-05-07 22:54 | -31.30441 | -64.60865 | 22602 ft | 210 kts | 238° |
| 2026-05-07 22:54 | -31.31291 | -64.62149 | 23308 ft | 193 kts | 238° |
| 2026-05-07 22:54 | -31.32142 | -64.63436 | 23299 ft | 213 kts | 239° |
| 2026-05-07 22:55 | -31.33080 | -64.64921 | 23147 ft | 235 kts | 239° |
| 2026-05-07 22:55 | -31.34002 | -64.66429 | 23859 ft | 215 kts | 240° |
| 2026-05-07 22:55 | -31.34814 | -64.67796 | 24554 ft | 200 kts | 242° |
| 2026-05-07 22:55 | -31.35587 | -64.69230 | 24445 ft | 221 kts | 244° |
| 2026-05-07 22:56 | -31.36350 | -64.70882 | 24416 ft | 235 kts | 248° |
| 2026-05-07 22:56 | -31.36982 | -64.72557 | 25121 ft | 213 kts | 252° |
| 2026-05-07 22:56 | -31.37445 | -64.74136 | 25687 ft | 203 kts | 255° |
| 2026-05-07 22:56 | -31.37792 | -64.75798 | 25591 ft | 221 kts | 259° |
| 2026-05-07 22:57 | -31.38009 | -64.77599 | 25816 ft | 218 kts | 265° |
| 2026-05-07 22:57 | -31.38047 | -64.79276 | 26496 ft | 197 kts | 269° |
| 2026-05-07 22:57 | -31.37999 | -64.80952 | 26124 ft | 225 kts | 265° |
| 2026-05-07 22:57 | -31.38106 | -64.82866 | 25988 ft | 236 kts | 255° |
| 2026-05-07 22:58 | -31.38828 | -64.84513 | 26198 ft | 236 kts | 222° |
| 2026-05-07 22:58 | -31.40189 | -64.85632 | 26378 ft | 242 kts | 217° |
| 2026-05-07 22:58 | -31.41545 | -64.86880 | 26398 ft | 254 kts | 225° |
| 2026-05-07 22:58 | -31.42795 | -64.88404 | 26436 ft | 265 kts | 230° |
| 2026-05-07 22:59 | -31.43984 | -64.90123 | 26466 ft | 278 kts | 233° |
| 2026-05-07 22:59 | -31.45131 | -64.92016 | 26498 ft | 292 kts | 236° |
| 2026-05-07 22:59 | -31.46244 | -64.94065 | 26519 ft | 305 kts | 238° |
| 2026-05-07 22:59 | -31.47340 | -64.96254 | 26541 ft | 318 kts | 239° |
| 2026-05-07 23:00 | -31.48436 | -64.98568 | 26554 ft | 332 kts | 240° |
| 2026-05-07 23:00 | -31.49546 | -65.01001 | 26601 ft | 345 kts | 240° |
| 2026-05-07 23:00 | -31.50679 | -65.03535 | 26647 ft | 357 kts | 240° |
| 2026-05-07 23:00 | -31.51841 | -65.06162 | 26697 ft | 369 kts | 240° |
| 2026-05-07 23:01 | -31.53036 | -65.08873 | 26738 ft | 380 kts | 240° |
| 2026-05-07 23:01 | -31.54268 | -65.11663 | 26795 ft | 391 kts | 239° |
| 2026-05-07 23:01 | -31.55539 | -65.14530 | 26864 ft | 401 kts | 239° |
| 2026-05-07 23:01 | -31.56833 | -65.17441 | 27181 ft | 403 kts | 239° |
| 2026-05-07 23:02 | -31.58125 | -65.20356 | 27617 ft | 403 kts | 238° |
| 2026-05-07 23:02 | -31.59401 | -65.23243 | 28018 ft | 404 kts | 238° |
| 2026-05-07 23:02 | -31.60694 | -65.26173 | 28410 ft | 404 kts | 237° |
| 2026-05-07 23:02 | -31.61993 | -65.29100 | 28759 ft | 405 kts | 237° |
| 2026-05-07 23:03 | -31.63300 | -65.32041 | 29158 ft | 406 kts | 236° |
| 2026-05-07 23:03 | -31.64596 | -65.34960 | 29730 ft | 401 kts | 235° |
| 2026-05-07 23:03 | -31.65873 | -65.37840 | 30281 ft | 397 kts | 235° |
| 2026-05-07 23:03 | -31.67146 | -65.40698 | 30761 ft | 393 kts | 234° |
| 2026-05-07 23:04 | -31.68417 | -65.43535 | 31163 ft | 392 kts | 234° |
| 2026-05-07 23:04 | -31.69684 | -65.46370 | 31546 ft | 391 kts | 234° |
| 2026-05-07 23:04 | -31.70947 | -65.49191 | 31953 ft | 389 kts | 234° |
| 2026-05-07 23:04 | -31.72202 | -65.51996 | 32352 ft | 387 kts | 234° |
| 2026-05-07 23:05 | -31.73448 | -65.54792 | 32731 ft | 385 kts | 234° |
| 2026-05-07 23:05 | -31.74691 | -65.57581 | 33065 ft | 385 kts | 234° |
| 2026-05-07 23:05 | -31.75927 | -65.60356 | 33451 ft | 383 kts | 233° |
| 2026-05-07 23:05 | -31.77155 | -65.63124 | 33769 ft | 382 kts | 234° |
| 2026-05-07 23:06 | -31.78360 | -65.65899 | 34129 ft | 380 kts | 234° |
| 2026-05-07 23:06 | -31.79556 | -65.68673 | 34435 ft | 380 kts | 234° |
| 2026-05-07 23:06 | -31.80755 | -65.71430 | 34740 ft | 379 kts | 234° |
| 2026-05-07 23:06 | -31.81962 | -65.74180 | 35047 ft | 377 kts | 234° |
| 2026-05-07 23:07 | -31.83167 | -65.76908 | 35387 ft | 375 kts | 234° |
| 2026-05-07 23:07 | -31.84370 | -65.79620 | 35670 ft | 374 kts | 234° |
| 2026-05-07 23:07 | -31.85582 | -65.82340 | 35804 ft | 376 kts | 234° |
| 2026-05-07 23:08 | -31.88034 | -65.87836 | 35902 ft | 381 kts | 234° |
| 2026-05-07 23:08 | -31.90472 | -65.93334 | 35920 ft | 381 kts | 234° |
| 2026-05-07 23:09 | -31.92917 | -65.98857 | 35923 ft | 379 kts | 234° |
| 2026-05-07 23:09 | -31.94988 | -66.04605 | 35926 ft | 383 kts | 240° |
| 2026-05-07 23:10 | -31.96874 | -66.10472 | 35930 ft | 383 kts | 240° |
| 2026-05-07 23:10 | -31.98789 | -66.16340 | 35932 ft | 384 kts | 239° |
| 2026-05-07 23:11 | -32.00739 | -66.22206 | 35932 ft | 385 kts | 239° |
| 2026-05-07 23:11 | -32.02708 | -66.28080 | 35932 ft | 386 kts | 239° |
| 2026-05-07 23:12 | -32.04674 | -66.33952 | 35931 ft | 385 kts | 239° |
| 2026-05-07 23:12 | -32.06614 | -66.39772 | 35937 ft | 383 kts | 239° |
| 2026-05-07 23:13 | -32.08562 | -66.45617 | 35941 ft | 382 kts | 239° |
| 2026-05-07 23:13 | -32.10497 | -66.51463 | 35945 ft | 385 kts | 241° |
| 2026-05-07 23:14 | -32.12035 | -66.57583 | 35947 ft | 391 kts | 245° |
| 2026-05-07 23:14 | -32.13423 | -66.63789 | 35945 ft | 391 kts | 244° |
| 2026-05-07 23:15 | -32.14841 | -66.69978 | 35949 ft | 389 kts | 244° |
| 2026-05-07 23:15 | -32.16291 | -66.76112 | 35952 ft | 387 kts | 244° |
| 2026-05-07 23:16 | -32.17746 | -66.82216 | 35953 ft | 385 kts | 244° |
| 2026-05-07 23:16 | -32.19196 | -66.88294 | 35954 ft | 384 kts | 243° |
| 2026-05-07 23:17 | -32.20640 | -66.94354 | 35959 ft | 386 kts | 243° |
| 2026-05-07 23:17 | -32.22089 | -67.00462 | 35963 ft | 386 kts | 243° |
| 2026-05-07 23:18 | -32.23517 | -67.06585 | 35965 ft | 387 kts | 243° |
| 2026-05-07 23:18 | -32.24934 | -67.12704 | 35966 ft | 386 kts | 243° |
| 2026-05-07 23:19 | -32.26351 | -67.18801 | 35967 ft | 384 kts | 243° |
| 2026-05-07 23:19 | -32.27765 | -67.24873 | 35964 ft | 382 kts | 243° |
| 2026-05-07 23:20 | -32.29176 | -67.30927 | 35963 ft | 381 kts | 243° |
| 2026-05-07 23:20 | -32.30585 | -67.36973 | 35963 ft | 382 kts | 243° |
| 2026-05-07 23:21 | -32.32000 | -67.43037 | 35964 ft | 383 kts | 243° |
| 2026-05-07 23:21 | -32.33400 | -67.49073 | 35964 ft | 383 kts | 243° |
| 2026-05-07 23:22 | -32.34788 | -67.55162 | 35963 ft | 383 kts | 243° |
| 2026-05-07 23:22 | -32.36167 | -67.61231 | 35963 ft | 381 kts | 243° |
| 2026-05-07 23:23 | -32.37314 | -67.66252 | 35964 ft | 380 kts | 242° |